createdAt,value
2017-12-05T05:38:13.610Z,3.30
2017-12-05T05:40:40.156Z,3.00
2017-12-05T05:43:07.434Z,3.12
2017-12-05T05:45:33.987Z,3.75
2017-12-05T05:48:01.366Z,3.05
2017-12-05T05:50:28.641Z,3.40
2017-12-05T05:52:55.913Z,3.22
2017-12-05T05:55:22.385Z,3.37
2017-12-05T05:58:04.065Z,3.22
2017-12-05T06:00:31.297Z,3.17
2017-12-05T06:02:57.899Z,2.95
2017-12-05T06:05:24.461Z,3.10
2017-12-05T06:07:50.940Z,3.33
2017-12-05T06:10:17.470Z,2.92
2017-12-05T06:12:44.744Z,3.17
2017-12-05T06:15:12.098Z,3.33
2017-12-05T06:17:38.558Z,3.60
2017-12-05T06:20:05.090Z,3.70
2017-12-05T06:22:31.597Z,3.80
2017-12-05T06:24:58.152Z,3.60
2017-12-05T06:27:24.648Z,3.53
2017-12-05T06:29:51.113Z,4.10
2017-12-05T06:32:17.724Z,3.45
2017-12-05T15:37:35.960Z,8.98
2017-12-05T15:40:02.914Z,9.02
2017-12-05T15:42:30.302Z,8.68
2017-12-05T15:44:57.885Z,9.10
2017-12-05T15:47:25.720Z,7.82
2017-12-05T15:49:52.946Z,9.27
2017-12-05T15:52:19.708Z,9.45
2017-12-05T15:54:47.120Z,9.02
2017-12-05T15:57:15.995Z,9.35
2017-12-05T15:59:42.721Z,9.65
2017-12-05T16:02:09.520Z,9.25
2017-12-05T16:04:36.898Z,9.48
2017-12-05T16:07:03.558Z,9.05
2017-12-05T16:09:30.526Z,9.20
2017-12-05T16:11:58.313Z,11.25
2017-12-05T16:14:24.863Z,10.90
2017-12-05T16:16:52.247Z,13.98
2017-12-05T16:19:19.459Z,10.93
2017-12-05T16:21:47.511Z,13.13
2017-12-05T16:24:14.785Z,39.25
2017-12-05T16:26:41.448Z,11.90
2017-12-05T16:29:09.028Z,21.62
2017-12-05T16:31:36.201Z,16.60
2017-12-05T16:34:04.815Z,13.30
2017-12-05T16:36:32.180Z,13.10
2017-12-05T16:38:58.842Z,18.30
2017-12-05T16:41:25.400Z,11.65
2017-12-05T16:43:51.958Z,9.98
2017-12-05T16:46:19.948Z,10.65
2017-12-05T16:51:48.774Z,11.88
2017-12-05T16:54:17.703Z,11.25
2017-12-05T16:56:45.864Z,12.15
2017-12-05T16:59:14.679Z,11.07
2017-12-05T17:01:42.381Z,9.88
2017-12-05T17:04:09.151Z,10.20
2017-12-05T17:06:35.990Z,11.98
2017-12-05T17:09:03.737Z,11.18
2017-12-05T17:11:31.103Z,10.43
2017-12-05T17:13:59.141Z,11.10
2017-12-05T17:16:26.410Z,11.68
2017-12-05T17:18:53.219Z,10.63
2017-12-05T17:21:19.943Z,12.57
2017-12-05T17:23:47.111Z,10.70
2017-12-05T17:26:14.927Z,10.88
2017-12-05T17:28:41.658Z,14.23
2017-12-05T17:31:09.039Z,12.27
2017-12-05T17:33:35.696Z,14.20
2017-12-05T17:36:04.620Z,13.07
2017-12-05T17:38:31.574Z,19.87
2017-12-05T17:40:58.236Z,18.95
2017-12-05T17:43:26.768Z,25.25
2017-12-05T17:45:53.398Z,34.28
2017-12-05T17:48:20.774Z,16.40
2017-12-05T17:50:49.965Z,33.05
2017-12-05T17:53:20.023Z,21.35
2017-12-05T17:55:50.434Z,13.57
2017-12-05T17:58:19.736Z,12.20
2017-12-05T18:00:48.970Z,11.40
2017-12-05T18:03:19.009Z,16.98
2017-12-05T18:05:52.766Z,13.65
2017-12-05T18:08:22.129Z,19.30
2017-12-05T18:10:51.345Z,11.27
2017-12-05T18:13:21.236Z,12.37
2017-12-05T18:15:51.698Z,12.65
2017-12-05T18:18:20.693Z,13.62
2017-12-05T18:20:48.065Z,12.63
2017-12-05T18:23:32.195Z,12.65
2017-12-05T18:26:01.384Z,15.05
2017-12-05T18:28:30.591Z,14.80
2017-12-05T18:31:13.375Z,13.35
2017-12-05T18:33:42.562Z,13.10
2017-12-05T18:36:11.842Z,12.95
2017-12-05T18:38:41.710Z,13.68
2017-12-05T18:41:12.390Z,13.27
2017-12-05T18:43:42.074Z,14.35
2017-12-05T18:46:13.078Z,13.43
2017-12-05T18:48:41.485Z,14.63
2017-12-05T18:54:10.444Z,13.95
2017-12-05T18:56:39.606Z,13.98
2017-12-05T18:59:10.416Z,15.55
2017-12-05T19:01:40.769Z,14.27
2017-12-05T19:04:13.697Z,15.57
2017-12-05T19:06:42.666Z,16.25
2017-12-05T19:09:10.092Z,14.50
2017-12-05T19:11:37.571Z,14.52
2017-12-05T19:14:05.560Z,16.17
2017-12-05T19:16:33.119Z,16.05
2017-12-05T19:19:03.049Z,14.93
2017-12-05T19:21:30.556Z,15.10
2017-12-05T19:24:19.306Z,15.30
2017-12-05T19:26:47.303Z,14.57
2017-12-05T19:29:16.220Z,14.27
2017-12-05T19:31:43.791Z,16.00
2017-12-05T19:34:17.216Z,15.38
2017-12-05T19:36:45.884Z,15.07
2017-12-05T19:39:13.490Z,14.98
2017-12-05T19:41:45.300Z,16.33
2017-12-05T19:44:15.110Z,15.40
2017-12-05T19:46:45.436Z,15.52
2017-12-05T19:49:15.381Z,16.37
2017-12-05T19:51:42.847Z,14.55
2017-12-05T19:54:09.919Z,15.18
2017-12-05T19:56:37.817Z,16.17
2017-12-05T19:59:05.116Z,16.12
2017-12-05T20:01:33.853Z,16.60
2017-12-05T20:04:03.975Z,16.27
2017-12-05T20:06:32.323Z,15.90
2017-12-05T20:09:07.683Z,15.35
2017-12-05T20:11:35.177Z,14.70
2017-12-05T20:14:03.483Z,16.10
2017-12-05T20:16:55.594Z,17.23
2017-12-05T20:19:24.452Z,16.62
2017-12-05T20:21:53.500Z,16.67
2017-12-05T20:24:26.859Z,18.48
2017-12-05T20:26:54.204Z,17.52
2017-12-05T20:29:23.258Z,16.48
2017-12-05T20:31:58.863Z,15.90
2017-12-05T20:34:28.505Z,15.27
